Aberdeen, New Jersey
Current Conditions -  °F | °C
As of 9:35 AM on Saturday 25 Oct 2014 (Local Time) from KLDJ Reporting Station
Clear Clear  
Wind Chill: 14°   Ceiling: Unl
Heat Index: 14°   Visibility: 10mi
Dew Point:   Wind: 6mph
Humidity: 51%   Direction: 290°WNW
Pressure: 29.89"   Gusts: NA
Location:  40.4118°N, 74.2499°W
Report Text: KLDJ 251335Z AUTO 29005KT 10SM CLR 14/04 A2989 RMK AO2 T01420041
Loading
Personal Weather Stations






























Interactive Weather Map
Tropical Storm Tracking
New forecast layout! Learn more

10-Day Weather Forecast

Advertisements
Track Severe Weather on mobile